Hauptseite
METAR-TAF:

METAR-TAF

Flughäfen :

Flughafen Mora-Siljan

Mora, Schweden

Breite: 60-57-31N, Länge: 14-30-40E, Höhe: 193 m

Beobachtung

Neuester Wetterbericht von vor 40 Minuten, um 18:50 UTC
Wind 8 kt aus Ost/Südost
Temperatur 20°C
Luftfeuchtigkeit 56%
Luftdruck 1019 hPa
Sichtweite 10 km oder mehr

METAR: ESKM 231850Z AUTO 11008KT 9999 NCD 20/11 Q1019

Zeit: 21:30 (19:30 UTC)


TAF: fehlend

Wetterbeobachtungen und Prognosen von mehr als 4000 Flughäfen (METAR und TAF Bericht).

Die verfügbaren Stationen werden durch gelbe und rote Markierungen auf der Karte dargestellt.

Führen Sie die Maus auf sie, um den Namen der Station zu sehen.

Darauf klicken, um die Beobachtung von Wetterbeobachtungen und Prognosen zu sehen.

Um die Karte zu ändern : klicken Sie auf den grünen Tasten mit einem schwarzen Kreuz Zum Vergrößern, auf den grünen Button mit einem Gedankenstrich zu verkleinern, oder auf die grünen Pfeile für benachbarte Karten.


METAR-TAF: